sensor_id;sensor_type;location;lat;lon;timestamp;temperature;humidity
26655;DHT22;14278;50.784;4.630;2023-03-21T00:01:12;12.50;99.90
26655;DHT22;14278;50.784;4.630;2023-03-21T00:03:39;12.80;99.90
26655;DHT22;14278;50.784;4.630;2023-03-21T00:06:09;12.80;99.90
26655;DHT22;14278;50.784;4.630;2023-03-21T00:08:36;12.50;99.90
26655;DHT22;14278;50.784;4.630;2023-03-21T00:11:05;12.70;99.90
26655;DHT22;14278;50.784;4.630;2023-03-21T00:13:32;12.40;99.90
26655;DHT22;14278;50.784;4.630;2023-03-21T00:16:08;12.20;99.90
26655;DHT22;14278;50.784;4.630;2023-03-21T00:18:35;12.20;99.90
26655;DHT22;14278;50.784;4.630;2023-03-21T00:21:04;12.10;99.90
26655;DHT22;14278;50.784;4.630;2023-03-21T00:23:31;12.30;99.90
26655;DHT22;14278;50.784;4.630;2023-03-21T00:25:58;12.40;99.90
26655;DHT22;14278;50.784;4.630;2023-03-21T00:28:24;12.40;99.90
26655;DHT22;14278;50.784;4.630;2023-03-21T00:30:55;12.40;99.90
26655;DHT22;14278;50.784;4.630;2023-03-21T00:33:21;12.30;99.90
26655;DHT22;14278;50.784;4.630;2023-03-21T00:35:49;12.40;99.90
26655;DHT22;14278;50.784;4.630;2023-03-21T00:38:17;12.20;99.90
26655;DHT22;14278;50.784;4.630;2023-03-21T00:40:44;12.20;99.90
26655;DHT22;14278;50.784;4.630;2023-03-21T00:43:10;12.10;99.90
26655;DHT22;14278;50.784;4.630;2023-03-21T00:45:46;12.10;99.90
26655;DHT22;14278;50.784;4.630;2023-03-21T00:48:12;11.90;99.90
26655;DHT22;14278;50.784;4.630;2023-03-21T00:50:39;11.80;99.90
26655;DHT22;14278;50.784;4.630;2023-03-21T00:53:05;12.10;99.90
26655;DHT22;14278;50.784;4.630;2023-03-21T00:55:31;12.30;99.90
26655;DHT22;14278;50.784;4.630;2023-03-21T00:57:57;12.40;99.90
26655;DHT22;14278;50.784;4.630;2023-03-21T01:00:23;12.60;99.90
26655;DHT22;14278;50.784;4.630;2023-03-21T01:02:49;12.30;99.90
26655;DHT22;14278;50.784;4.630;2023-03-21T01:05:29;12.20;99.90
26655;DHT22;14278;50.784;4.630;2023-03-21T01:08:15;12.30;99.90
26655;DHT22;14278;50.784;4.630;2023-03-21T01:10:44;12.60;99.90
26655;DHT22;14278;50.784;4.630;2023-03-21T01:13:12;12.40;99.90
26655;DHT22;14278;50.784;4.630;2023-03-21T01:15:44;12.30;99.90
26655;DHT22;14278;50.784;4.630;2023-03-21T01:18:10;12.40;99.90
26655;DHT22;14278;50.784;4.630;2023-03-21T01:20:36;12.50;99.90
26655;DHT22;14278;50.784;4.630;2023-03-21T01:23:02;12.50;99.90
26655;DHT22;14278;50.784;4.630;2023-03-21T01:25:28;12.60;99.90
26655;DHT22;14278;50.784;4.630;2023-03-21T01:27:54;12.60;99.90
26655;DHT22;14278;50.784;4.630;2023-03-21T01:30:20;12.60;99.90
26655;DHT22;14278;50.784;4.630;2023-03-21T01:32:46;12.70;99.90
26655;DHT22;14278;50.784;4.630;2023-03-21T01:35:12;12.80;99.90
26655;DHT22;14278;50.784;4.630;2023-03-21T01:37:38;12.80;99.90
26655;DHT22;14278;50.784;4.630;2023-03-21T01:40:04;12.70;99.90
26655;DHT22;14278;50.784;4.630;2023-03-21T01:42:31;12.50;99.90
26655;DHT22;14278;50.784;4.630;2023-03-21T01:45:03;12.20;99.90
26655;DHT22;14278;50.784;4.630;2023-03-21T01:47:30;12.30;99.90
26655;DHT22;14278;50.784;4.630;2023-03-21T01:49:59;12.50;99.90
26655;DHT22;14278;50.784;4.630;2023-03-21T01:52:30;12.40;99.90
26655;DHT22;14278;50.784;4.630;2023-03-21T01:54:58;12.60;99.90
26655;DHT22;14278;50.784;4.630;2023-03-21T01:57:28;12.80;99.90
26655;DHT22;14278;50.784;4.630;2023-03-21T01:59:58;12.70;99.90
26655;DHT22;14278;50.784;4.630;2023-03-21T02:02:32;12.50;99.90
26655;DHT22;14278;50.784;4.630;2023-03-21T02:05:02;12.20;99.90
26655;DHT22;14278;50.784;4.630;2023-03-21T02:07:31;12.30;99.90
26655;DHT22;14278;50.784;4.630;2023-03-21T02:10:03;12.30;99.90
26655;DHT22;14278;50.784;4.630;2023-03-21T02:12:30;12.40;99.90
26655;DHT22;14278;50.784;4.630;2023-03-21T02:14:56;12.20;99.90
26655;DHT22;14278;50.784;4.630;2023-03-21T02:17:48;12.10;99.90
26655;DHT22;14278;50.784;4.630;2023-03-21T02:20:50;11.90;99.90
26655;DHT22;14278;50.784;4.630;2023-03-21T02:37:36;12.20;99.90
26655;DHT22;14278;50.784;4.630;2023-03-21T02:40:21;12.10;99.90
26655;DHT22;14278;50.784;4.630;2023-03-21T02:45:20;12.10;99.90
26655;DHT22;14278;50.784;4.630;2023-03-21T02:47:54;12.20;99.90
26655;DHT22;14278;50.784;4.630;2023-03-21T02:50:25;12.20;99.90
26655;DHT22;14278;50.784;4.630;2023-03-21T02:52:54;12.10;99.90
26655;DHT22;14278;50.784;4.630;2023-03-21T02:55:26;12.00;99.90
26655;DHT22;14278;50.784;4.630;2023-03-21T02:57:55;11.90;99.90
26655;DHT22;14278;50.784;4.630;2023-03-21T03:00:25;11.90;99.90
26655;DHT22;14278;50.784;4.630;2023-03-21T03:02:52;11.90;99.90
26655;DHT22;14278;50.784;4.630;2023-03-21T03:05:29;12.10;99.90
26655;DHT22;14278;50.784;4.630;2023-03-21T03:16:59;12.60;99.90
26655;DHT22;14278;50.784;4.630;2023-03-21T03:19:29;12.60;99.90
26655;DHT22;14278;50.784;4.630;2023-03-21T03:22:14;12.50;99.90
26655;DHT22;14278;50.784;4.630;2023-03-21T03:24:53;12.60;99.90
26655;DHT22;14278;50.784;4.630;2023-03-21T03:27:29;12.60;99.90
26655;DHT22;14278;50.784;4.630;2023-03-21T03:29:59;12.40;99.90
26655;DHT22;14278;50.784;4.630;2023-03-21T03:32:47;12.40;99.90
26655;DHT22;14278;50.784;4.630;2023-03-21T03:35:17;12.40;99.90
26655;DHT22;14278;50.784;4.630;2023-03-21T03:37:48;12.50;99.90
26655;DHT22;14278;50.784;4.630;2023-03-21T03:40:20;12.60;99.90
26655;DHT22;14278;50.784;4.630;2023-03-21T03:42:51;12.40;99.90
26655;DHT22;14278;50.784;4.630;2023-03-21T03:45:19;12.50;99.90
26655;DHT22;14278;50.784;4.630;2023-03-21T03:48:33;12.60;99.90
26655;DHT22;14278;50.784;4.630;2023-03-21T03:51:05;12.60;99.90
26655;DHT22;14278;50.784;4.630;2023-03-21T03:53:48;12.40;99.90
26655;DHT22;14278;50.784;4.630;2023-03-21T03:56:16;12.40;99.90
26655;DHT22;14278;50.784;4.630;2023-03-21T03:58:42;12.30;99.90
26655;DHT22;14278;50.784;4.630;2023-03-21T04:01:08;12.30;99.90
26655;DHT22;14278;50.784;4.630;2023-03-21T04:03:36;12.60;99.90
26655;DHT22;14278;50.784;4.630;2023-03-21T04:06:02;12.70;99.90
26655;DHT22;14278;50.784;4.630;2023-03-21T04:08:29;12.50;99.90
26655;DHT22;14278;50.784;4.630;2023-03-21T04:10:55;12.50;99.90
26655;DHT22;14278;50.784;4.630;2023-03-21T04:13:21;12.70;99.90
26655;DHT22;14278;50.784;4.630;2023-03-21T04:15:47;12.70;99.90
26655;DHT22;14278;50.784;4.630;2023-03-21T04:18:13;12.60;99.90
26655;DHT22;14278;50.784;4.630;2023-03-21T04:20:40;12.70;99.90
26655;DHT22;14278;50.784;4.630;2023-03-21T04:23:06;12.50;99.90
26655;DHT22;14278;50.784;4.630;2023-03-21T04:25:36;12.60;99.90
26655;DHT22;14278;50.784;4.630;2023-03-21T04:28:02;12.60;99.90
26655;DHT22;14278;50.784;4.630;2023-03-21T04:30:28;12.60;99.90
26655;DHT22;14278;50.784;4.630;2023-03-21T04:32:55;12.50;99.90
26655;DHT22;14278;50.784;4.630;2023-03-21T04:35:26;12.50;99.90
26655;DHT22;14278;50.784;4.630;2023-03-21T04:37:53;12.40;99.90
26655;DHT22;14278;50.784;4.630;2023-03-21T04:40:19;12.60;99.90
26655;DHT22;14278;50.784;4.630;2023-03-21T04:42:46;12.70;99.90
26655;DHT22;14278;50.784;4.630;2023-03-21T04:45:14;12.80;99.90
26655;DHT22;14278;50.784;4.630;2023-03-21T04:47:40;12.60;99.90
26655;DHT22;14278;50.784;4.630;2023-03-21T04:50:08;12.60;99.90
26655;DHT22;14278;50.784;4.630;2023-03-21T04:52:34;12.60;99.90
26655;DHT22;14278;50.784;4.630;2023-03-21T04:55:00;12.50;99.90
26655;DHT22;14278;50.784;4.630;2023-03-21T04:57:26;12.70;99.90
26655;DHT22;14278;50.784;4.630;2023-03-21T04:59:52;12.90;99.90
26655;DHT22;14278;50.784;4.630;2023-03-21T05:02:18;12.70;99.90
26655;DHT22;14278;50.784;4.630;2023-03-21T05:04:44;13.00;99.90
26655;DHT22;14278;50.784;4.630;2023-03-21T05:07:10;12.90;99.90
26655;DHT22;14278;50.784;4.630;2023-03-21T05:09:37;12.80;99.90
26655;DHT22;14278;50.784;4.630;2023-03-21T05:12:02;12.60;99.90
26655;DHT22;14278;50.784;4.630;2023-03-21T05:14:29;12.70;99.90
26655;DHT22;14278;50.784;4.630;2023-03-21T05:16:55;12.70;99.90
26655;DHT22;14278;50.784;4.630;2023-03-21T05:19:25;12.70;99.90
26655;DHT22;14278;50.784;4.630;2023-03-21T05:22:00;12.60;99.90
26655;DHT22;14278;50.784;4.630;2023-03-21T05:24:30;12.50;99.90
26655;DHT22;14278;50.784;4.630;2023-03-21T05:26:57;12.70;99.90
26655;DHT22;14278;50.784;4.630;2023-03-21T05:29:29;12.60;99.90
26655;DHT22;14278;50.784;4.630;2023-03-21T05:31:57;12.50;99.90
26655;DHT22;14278;50.784;4.630;2023-03-21T05:34:24;12.60;99.90
26655;DHT22;14278;50.784;4.630;2023-03-21T05:36:50;12.40;99.90
26655;DHT22;14278;50.784;4.630;2023-03-21T05:39:16;12.60;99.90
26655;DHT22;14278;50.784;4.630;2023-03-21T05:41:41;12.50;99.90
26655;DHT22;14278;50.784;4.630;2023-03-21T05:44:07;12.50;99.90
26655;DHT22;14278;50.784;4.630;2023-03-21T05:46:33;12.50;99.90
26655;DHT22;14278;50.784;4.630;2023-03-21T05:48:59;12.60;99.90
26655;DHT22;14278;50.784;4.630;2023-03-21T05:51:26;12.50;99.90
26655;DHT22;14278;50.784;4.630;2023-03-21T05:53:52;12.70;99.90
26655;DHT22;14278;50.784;4.630;2023-03-21T05:56:18;12.60;99.90
26655;DHT22;14278;50.784;4.630;2023-03-21T05:58:44;12.60;99.90
26655;DHT22;14278;50.784;4.630;2023-03-21T06:01:11;12.70;99.90
26655;DHT22;14278;50.784;4.630;2023-03-21T06:03:38;12.60;99.90
26655;DHT22;14278;50.784;4.630;2023-03-21T06:06:04;12.70;99.90
26655;DHT22;14278;50.784;4.630;2023-03-21T06:08:31;12.60;99.90
26655;DHT22;14278;50.784;4.630;2023-03-21T06:10:57;12.30;99.90
26655;DHT22;14278;50.784;4.630;2023-03-21T06:13:23;12.40;99.90
26655;DHT22;14278;50.784;4.630;2023-03-21T06:15:49;12.40;99.90
26655;DHT22;14278;50.784;4.630;2023-03-21T06:18:15;12.40;99.90
26655;DHT22;14278;50.784;4.630;2023-03-21T06:20:44;12.40;99.90
26655;DHT22;14278;50.784;4.630;2023-03-21T06:23:11;12.40;99.90
26655;DHT22;14278;50.784;4.630;2023-03-21T06:25:37;12.30;99.90
26655;DHT22;14278;50.784;4.630;2023-03-21T06:28:02;12.30;99.90
26655;DHT22;14278;50.784;4.630;2023-03-21T06:30:28;12.30;99.90
26655;DHT22;14278;50.784;4.630;2023-03-21T06:32:57;12.40;99.90
26655;DHT22;14278;50.784;4.630;2023-03-21T06:35:23;12.60;99.90
26655;DHT22;14278;50.784;4.630;2023-03-21T06:37:49;12.50;99.90
26655;DHT22;14278;50.784;4.630;2023-03-21T06:40:15;12.50;99.90
26655;DHT22;14278;50.784;4.630;2023-03-21T06:42:41;12.50;99.90
26655;DHT22;14278;50.784;4.630;2023-03-21T06:45:07;12.60;99.90
26655;DHT22;14278;50.784;4.630;2023-03-21T06:47:33;12.40;99.90
26655;DHT22;14278;50.784;4.630;2023-03-21T06:49:59;12.40;99.90
26655;DHT22;14278;50.784;4.630;2023-03-21T06:52:28;12.50;99.90
26655;DHT22;14278;50.784;4.630;2023-03-21T06:54:54;12.60;99.90
26655;DHT22;14278;50.784;4.630;2023-03-21T06:57:19;12.60;99.90
26655;DHT22;14278;50.784;4.630;2023-03-21T06:59:46;12.40;99.90
26655;DHT22;14278;50.784;4.630;2023-03-21T07:02:12;12.40;99.90
26655;DHT22;14278;50.784;4.630;2023-03-21T07:04:38;12.40;99.90
26655;DHT22;14278;50.784;4.630;2023-03-21T07:07:04;12.30;99.90
26655;DHT22;14278;50.784;4.630;2023-03-21T07:09:30;12.40;99.90
26655;DHT22;14278;50.784;4.630;2023-03-21T07:11:56;12.40;99.90
26655;DHT22;14278;50.784;4.630;2023-03-21T07:14:22;12.50;99.90
26655;DHT22;14278;50.784;4.630;2023-03-21T07:16:48;12.30;99.90
26655;DHT22;14278;50.784;4.630;2023-03-21T07:19:14;12.10;99.90
26655;DHT22;14278;50.784;4.630;2023-03-21T07:21:40;12.20;99.90
26655;DHT22;14278;50.784;4.630;2023-03-21T07:24:07;12.30;99.90
26655;DHT22;14278;50.784;4.630;2023-03-21T07:26:32;12.40;99.90
26655;DHT22;14278;50.784;4.630;2023-03-21T07:28:58;12.60;99.90
26655;DHT22;14278;50.784;4.630;2023-03-21T07:31:24;12.60;99.90
26655;DHT22;14278;50.784;4.630;2023-03-21T07:33:51;12.60;99.90
26655;DHT22;14278;50.784;4.630;2023-03-21T07:36:18;12.50;99.90
26655;DHT22;14278;50.784;4.630;2023-03-21T07:38:44;12.60;99.90
26655;DHT22;14278;50.784;4.630;2023-03-21T07:41:11;12.30;99.90
26655;DHT22;14278;50.784;4.630;2023-03-21T07:43:38;12.30;99.90
26655;DHT22;14278;50.784;4.630;2023-03-21T07:46:04;12.30;99.90
26655;DHT22;14278;50.784;4.630;2023-03-21T07:48:30;12.50;99.90
26655;DHT22;14278;50.784;4.630;2023-03-21T07:50:56;12.70;99.90
26655;DHT22;14278;50.784;4.630;2023-03-21T07:53:22;12.80;99.90
26655;DHT22;14278;50.784;4.630;2023-03-21T07:55:50;12.70;99.90
26655;DHT22;14278;50.784;4.630;2023-03-21T07:58:16;12.60;99.90
26655;DHT22;14278;50.784;4.630;2023-03-21T08:00:42;12.70;99.90
26655;DHT22;14278;50.784;4.630;2023-03-21T08:03:08;12.80;99.90
26655;DHT22;14278;50.784;4.630;2023-03-21T08:05:36;12.70;99.90
26655;DHT22;14278;50.784;4.630;2023-03-21T08:08:03;12.90;99.90
26655;DHT22;14278;50.784;4.630;2023-03-21T08:10:29;12.90;99.90
26655;DHT22;14278;50.784;4.630;2023-03-21T08:12:56;12.80;99.90
26655;DHT22;14278;50.784;4.630;2023-03-21T08:15:22;12.80;99.90
26655;DHT22;14278;50.784;4.630;2023-03-21T08:17:48;12.90;99.90
26655;DHT22;14278;50.784;4.630;2023-03-21T08:20:17;12.70;99.90
26655;DHT22;14278;50.784;4.630;2023-03-21T08:22:45;12.60;99.90
26655;DHT22;14278;50.784;4.630;2023-03-21T08:25:13;12.60;99.90
26655;DHT22;14278;50.784;4.630;2023-03-21T08:27:40;12.80;99.90
26655;DHT22;14278;50.784;4.630;2023-03-21T08:30:08;12.80;99.90
26655;DHT22;14278;50.784;4.630;2023-03-21T08:32:34;12.90;99.90
26655;DHT22;14278;50.784;4.630;2023-03-21T08:35:00;12.70;99.90
26655;DHT22;14278;50.784;4.630;2023-03-21T08:37:27;12.60;99.90
26655;DHT22;14278;50.784;4.630;2023-03-21T08:39:53;12.40;99.90
26655;DHT22;14278;50.784;4.630;2023-03-21T08:42:20;12.60;99.90
26655;DHT22;14278;50.784;4.630;2023-03-21T08:44:47;12.40;99.90
26655;DHT22;14278;50.784;4.630;2023-03-21T08:47:13;12.50;99.90
26655;DHT22;14278;50.784;4.630;2023-03-21T08:49:40;12.60;99.90
26655;DHT22;14278;50.784;4.630;2023-03-21T08:52:07;12.50;99.90
26655;DHT22;14278;50.784;4.630;2023-03-21T08:54:33;12.50;99.90
26655;DHT22;14278;50.784;4.630;2023-03-21T08:56:59;12.70;99.90
26655;DHT22;14278;50.784;4.630;2023-03-21T08:59:25;12.70;99.90
26655;DHT22;14278;50.784;4.630;2023-03-21T09:01:51;12.60;99.90
26655;DHT22;14278;50.784;4.630;2023-03-21T09:04:17;12.70;99.90
26655;DHT22;14278;50.784;4.630;2023-03-21T09:06:45;12.90;99.90
26655;DHT22;14278;50.784;4.630;2023-03-21T09:09:12;12.80;99.90
26655;DHT22;14278;50.784;4.630;2023-03-21T09:11:38;12.90;99.90
26655;DHT22;14278;50.784;4.630;2023-03-21T09:14:04;12.80;99.90
26655;DHT22;14278;50.784;4.630;2023-03-21T09:16:30;12.70;99.90
26655;DHT22;14278;50.784;4.630;2023-03-21T09:18:56;12.60;99.90
26655;DHT22;14278;50.784;4.630;2023-03-21T09:21:24;12.70;99.90
26655;DHT22;14278;50.784;4.630;2023-03-21T09:23:52;12.90;99.90
26655;DHT22;14278;50.784;4.630;2023-03-21T09:26:20;13.10;99.90
26655;DHT22;14278;50.784;4.630;2023-03-21T09:28:46;13.30;99.90
26655;DHT22;14278;50.784;4.630;2023-03-21T09:31:14;13.40;99.90
26655;DHT22;14278;50.784;4.630;2023-03-21T09:33:41;13.40;99.90
26655;DHT22;14278;50.784;4.630;2023-03-21T09:36:09;13.40;99.90
26655;DHT22;14278;50.784;4.630;2023-03-21T09:38:42;13.30;99.90
26655;DHT22;14278;50.784;4.630;2023-03-21T09:44:24;13.20;99.90
26655;DHT22;14278;50.784;4.630;2023-03-21T09:49:41;13.10;99.90
26655;DHT22;14278;50.784;4.630;2023-03-21T09:52:21;13.10;99.90
26655;DHT22;14278;50.784;4.630;2023-03-21T09:54:48;13.40;99.90
26655;DHT22;14278;50.784;4.630;2023-03-21T09:57:40;13.40;99.90
26655;DHT22;14278;50.784;4.630;2023-03-21T10:00:14;13.50;99.90
26655;DHT22;14278;50.784;4.630;2023-03-21T10:02:47;13.60;99.90
26655;DHT22;14278;50.784;4.630;2023-03-21T10:05:20;13.70;99.90
26655;DHT22;14278;50.784;4.630;2023-03-21T10:07:55;13.80;99.90
26655;DHT22;14278;50.784;4.630;2023-03-21T10:10:27;13.80;99.90
26655;DHT22;14278;50.784;4.630;2023-03-21T10:12:55;13.80;99.90
26655;DHT22;14278;50.784;4.630;2023-03-21T10:15:24;13.80;99.90
26655;DHT22;14278;50.784;4.630;2023-03-21T10:18:01;13.70;99.90
26655;DHT22;14278;50.784;4.630;2023-03-21T10:20:32;13.90;99.90
26655;DHT22;14278;50.784;4.630;2023-03-21T10:23:02;14.10;99.90
26655;DHT22;14278;50.784;4.630;2023-03-21T10:25:36;14.30;99.90
26655;DHT22;14278;50.784;4.630;2023-03-21T10:28:06;13.60;99.90
26655;DHT22;14278;50.784;4.630;2023-03-21T10:30:53;13.80;99.90
26655;DHT22;14278;50.784;4.630;2023-03-21T10:33:31;14.00;99.90
26655;DHT22;14278;50.784;4.630;2023-03-21T10:35:59;14.10;99.90
26655;DHT22;14278;50.784;4.630;2023-03-21T10:38:26;14.20;99.90
26655;DHT22;14278;50.784;4.630;2023-03-21T10:40:53;14.10;99.90
26655;DHT22;14278;50.784;4.630;2023-03-21T10:45:52;14.10;99.90
26655;DHT22;14278;50.784;4.630;2023-03-21T10:48:20;14.20;99.90
26655;DHT22;14278;50.784;4.630;2023-03-21T10:50:49;14.30;99.90
26655;DHT22;14278;50.784;4.630;2023-03-21T10:53:27;14.50;99.90
26655;DHT22;14278;50.784;4.630;2023-03-21T10:55:56;14.40;99.90
26655;DHT22;14278;50.784;4.630;2023-03-21T10:58:29;14.30;99.90
26655;DHT22;14278;50.784;4.630;2023-03-21T11:01:03;14.40;99.90
26655;DHT22;14278;50.784;4.630;2023-03-21T11:03:31;14.30;99.90
26655;DHT22;14278;50.784;4.630;2023-03-21T11:06:07;14.40;99.90
26655;DHT22;14278;50.784;4.630;2023-03-21T11:08:42;14.60;99.90
26655;DHT22;14278;50.784;4.630;2023-03-21T11:11:24;15.00;99.90
26655;DHT22;14278;50.784;4.630;2023-03-21T11:13:58;16.00;99.90
26655;DHT22;14278;50.784;4.630;2023-03-21T11:19:10;17.60;99.90
26655;DHT22;14278;50.784;4.630;2023-03-21T11:21:38;17.70;99.90
26655;DHT22;14278;50.784;4.630;2023-03-21T11:24:05;17.20;99.90
26655;DHT22;14278;50.784;4.630;2023-03-21T11:26:36;17.60;99.90
26655;DHT22;14278;50.784;4.630;2023-03-21T11:29:31;17.40;99.90
26655;DHT22;14278;50.784;4.630;2023-03-21T11:32:12;17.40;99.90
26655;DHT22;14278;50.784;4.630;2023-03-21T11:34:57;16.50;99.90
26655;DHT22;14278;50.784;4.630;2023-03-21T11:39:55;17.10;99.90
26655;DHT22;14278;50.784;4.630;2023-03-21T11:42:27;17.80;99.90
26655;DHT22;14278;50.784;4.630;2023-03-21T11:45:00;18.70;99.90
26655;DHT22;14278;50.784;4.630;2023-03-21T11:47:26;18.20;99.90
26655;DHT22;14278;50.784;4.630;2023-03-21T11:49:53;18.10;99.90
26655;DHT22;14278;50.784;4.630;2023-03-21T11:55:34;17.10;99.90
26655;DHT22;14278;50.784;4.630;2023-03-21T11:58:16;15.90;99.90
26655;DHT22;14278;50.784;4.630;2023-03-21T12:00:57;15.80;99.90
26655;DHT22;14278;50.784;4.630;2023-03-21T12:03:45;16.80;99.90
26655;DHT22;14278;50.784;4.630;2023-03-21T12:06:34;18.30;99.90
26655;DHT22;14278;50.784;4.630;2023-03-21T12:09:20;17.70;99.90
26655;DHT22;14278;50.784;4.630;2023-03-21T12:20:56;16.70;99.90
26655;DHT22;14278;50.784;4.630;2023-03-21T12:26:10;16.80;99.90
26655;DHT22;14278;50.784;4.630;2023-03-21T12:37:11;16.50;99.90
26655;DHT22;14278;50.784;4.630;2023-03-21T12:39:40;16.40;99.90
26655;DHT22;14278;50.784;4.630;2023-03-21T12:45:11;16.70;99.90
26655;DHT22;14278;50.784;4.630;2023-03-21T12:47:39;16.90;99.90
26655;DHT22;14278;50.784;4.630;2023-03-21T12:50:26;17.00;99.90
26655;DHT22;14278;50.784;4.630;2023-03-21T12:53:05;17.00;99.90
26655;DHT22;14278;50.784;4.630;2023-03-21T12:55:33;17.10;99.90
26655;DHT22;14278;50.784;4.630;2023-03-21T12:58:03;17.20;99.90
26655;DHT22;14278;50.784;4.630;2023-03-21T13:00:45;16.70;99.90
26655;DHT22;14278;50.784;4.630;2023-03-21T13:05:51;16.40;99.90
26655;DHT22;14278;50.784;4.630;2023-03-21T13:11:04;16.40;99.90
26655;DHT22;14278;50.784;4.630;2023-03-21T13:13:38;16.50;99.90
26655;DHT22;14278;50.784;4.630;2023-03-21T13:16:29;16.40;99.90
26655;DHT22;14278;50.784;4.630;2023-03-21T13:21:56;16.40;99.90
26655;DHT22;14278;50.784;4.630;2023-03-21T13:24:32;16.40;99.90
26655;DHT22;14278;50.784;4.630;2023-03-21T13:27:02;16.70;99.90
26655;DHT22;14278;50.784;4.630;2023-03-21T13:29:40;17.00;99.90
26655;DHT22;14278;50.784;4.630;2023-03-21T13:32:29;17.20;99.90
26655;DHT22;14278;50.784;4.630;2023-03-21T13:35:02;17.00;99.90
26655;DHT22;14278;50.784;4.630;2023-03-21T13:37:33;16.70;99.90
26655;DHT22;14278;50.784;4.630;2023-03-21T13:40:06;17.00;99.90
26655;DHT22;14278;50.784;4.630;2023-03-21T13:42:43;17.10;99.90
26655;DHT22;14278;50.784;4.630;2023-03-21T13:45:11;17.20;99.90
26655;DHT22;14278;50.784;4.630;2023-03-21T13:47:58;17.40;99.90
26655;DHT22;14278;50.784;4.630;2023-03-21T13:50:33;17.00;99.90
26655;DHT22;14278;50.784;4.630;2023-03-21T13:55:39;16.20;99.90
26655;DHT22;14278;50.784;4.630;2023-03-21T14:04:16;16.70;99.90
26655;DHT22;14278;50.784;4.630;2023-03-21T14:06:54;16.80;99.90
26655;DHT22;14278;50.784;4.630;2023-03-21T14:09:31;16.80;99.90
26655;DHT22;14278;50.784;4.630;2023-03-21T14:11:59;16.60;99.90
26655;DHT22;14278;50.784;4.630;2023-03-21T14:14:31;16.30;99.90
26655;DHT22;14278;50.784;4.630;2023-03-21T14:16:58;16.10;99.90
26655;DHT22;14278;50.784;4.630;2023-03-21T14:19:31;16.10;99.90
26655;DHT22;14278;50.784;4.630;2023-03-21T14:21:58;16.10;99.90
26655;DHT22;14278;50.784;4.630;2023-03-21T14:24:23;16.00;99.90
26655;DHT22;14278;50.784;4.630;2023-03-21T14:26:52;16.20;99.90
26655;DHT22;14278;50.784;4.630;2023-03-21T14:29:33;16.30;99.90
26655;DHT22;14278;50.784;4.630;2023-03-21T14:32:00;16.30;99.90
26655;DHT22;14278;50.784;4.630;2023-03-21T14:34:29;16.50;99.90
26655;DHT22;14278;50.784;4.630;2023-03-21T14:36:56;16.50;99.90
26655;DHT22;14278;50.784;4.630;2023-03-21T14:39:29;16.90;99.90
26655;DHT22;14278;50.784;4.630;2023-03-21T14:42:03;16.60;99.90
26655;DHT22;14278;50.784;4.630;2023-03-21T14:44:36;16.40;99.90
26655;DHT22;14278;50.784;4.630;2023-03-21T14:47:05;16.10;99.90
26655;DHT22;14278;50.784;4.630;2023-03-21T14:49:36;15.90;99.90
26655;DHT22;14278;50.784;4.630;2023-03-21T14:52:10;16.10;99.90
26655;DHT22;14278;50.784;4.630;2023-03-21T14:54:41;16.20;99.90
26655;DHT22;14278;50.784;4.630;2023-03-21T14:57:12;16.00;99.90
26655;DHT22;14278;50.784;4.630;2023-03-21T14:59:41;15.60;99.90
26655;DHT22;14278;50.784;4.630;2023-03-21T15:02:21;15.30;99.90
26655;DHT22;14278;50.784;4.630;2023-03-21T15:04:53;15.20;99.90
26655;DHT22;14278;50.784;4.630;2023-03-21T15:07:28;15.30;99.90
26655;DHT22;14278;50.784;4.630;2023-03-21T15:09:58;15.20;99.90
26655;DHT22;14278;50.784;4.630;2023-03-21T15:12:25;15.50;99.90
26655;DHT22;14278;50.784;4.630;2023-03-21T15:14:52;15.70;99.90
26655;DHT22;14278;50.784;4.630;2023-03-21T15:17:18;15.40;99.90
26655;DHT22;14278;50.784;4.630;2023-03-21T15:19:44;15.40;99.90
26655;DHT22;14278;50.784;4.630;2023-03-21T15:22:29;15.40;99.90
26655;DHT22;14278;50.784;4.630;2023-03-21T15:25:02;15.20;99.90
26655;DHT22;14278;50.784;4.630;2023-03-21T15:27:31;14.90;99.90
26655;DHT22;14278;50.784;4.630;2023-03-21T15:29:57;14.70;99.90
26655;DHT22;14278;50.784;4.630;2023-03-21T15:32:26;14.60;99.90
26655;DHT22;14278;50.784;4.630;2023-03-21T15:35:07;14.60;99.90
26655;DHT22;14278;50.784;4.630;2023-03-21T15:37:37;14.40;99.90
26655;DHT22;14278;50.784;4.630;2023-03-21T15:40:20;14.40;99.90
26655;DHT22;14278;50.784;4.630;2023-03-21T15:42:46;14.50;99.90
26655;DHT22;14278;50.784;4.630;2023-03-21T15:45:26;14.60;99.90
26655;DHT22;14278;50.784;4.630;2023-03-21T15:48:02;14.60;99.90
26655;DHT22;14278;50.784;4.630;2023-03-21T15:50:34;14.60;99.90
26655;DHT22;14278;50.784;4.630;2023-03-21T15:53:05;14.60;99.90
26655;DHT22;14278;50.784;4.630;2023-03-21T15:55:42;14.50;99.90
26655;DHT22;14278;50.784;4.630;2023-03-21T15:58:16;14.50;99.90
26655;DHT22;14278;50.784;4.630;2023-03-21T16:00:48;14.50;99.90
26655;DHT22;14278;50.784;4.630;2023-03-21T16:03:27;14.50;99.90
26655;DHT22;14278;50.784;4.630;2023-03-21T16:08:47;14.60;99.90
26655;DHT22;14278;50.784;4.630;2023-03-21T16:11:22;14.50;99.90
26655;DHT22;14278;50.784;4.630;2023-03-21T16:13:50;14.30;99.90
26655;DHT22;14278;50.784;4.630;2023-03-21T16:16:21;14.20;99.90
26655;DHT22;14278;50.784;4.630;2023-03-21T16:18:47;14.50;99.90
26655;DHT22;14278;50.784;4.630;2023-03-21T16:21:15;14.60;99.90
26655;DHT22;14278;50.784;4.630;2023-03-21T16:23:42;14.70;99.90
26655;DHT22;14278;50.784;4.630;2023-03-21T16:26:19;14.30;99.90
26655;DHT22;14278;50.784;4.630;2023-03-21T16:28:46;14.00;99.90
26655;DHT22;14278;50.784;4.630;2023-03-21T16:31:14;14.00;99.90
26655;DHT22;14278;50.784;4.630;2023-03-21T16:33:41;14.10;99.90
26655;DHT22;14278;50.784;4.630;2023-03-21T16:36:22;14.20;99.90
26655;DHT22;14278;50.784;4.630;2023-03-21T16:38:49;14.20;99.90
26655;DHT22;14278;50.784;4.630;2023-03-21T16:41:17;14.30;99.90
26655;DHT22;14278;50.784;4.630;2023-03-21T16:43:44;14.60;99.90
26655;DHT22;14278;50.784;4.630;2023-03-21T16:46:14;14.60;99.90
26655;DHT22;14278;50.784;4.630;2023-03-21T16:48:42;14.60;99.90
26655;DHT22;14278;50.784;4.630;2023-03-21T16:51:18;14.50;99.90
26655;DHT22;14278;50.784;4.630;2023-03-21T16:53:45;14.50;99.90
26655;DHT22;14278;50.784;4.630;2023-03-21T16:56:17;14.60;99.90
26655;DHT22;14278;50.784;4.630;2023-03-21T16:58:43;14.30;99.90
26655;DHT22;14278;50.784;4.630;2023-03-21T17:01:25;14.40;99.90
26655;DHT22;14278;50.784;4.630;2023-03-21T17:03:55;14.50;99.90
26655;DHT22;14278;50.784;4.630;2023-03-21T17:06:25;14.40;99.90
26655;DHT22;14278;50.784;4.630;2023-03-21T17:08:51;14.40;99.90
26655;DHT22;14278;50.784;4.630;2023-03-21T17:11:20;14.50;99.90
26655;DHT22;14278;50.784;4.630;2023-03-21T17:13:50;14.30;99.90